createdAt,value
2022-10-11T00:00:40.764Z,999.63
2022-10-11T00:01:40.778Z,999.73
2022-10-11T00:02:40.746Z,999.73
2022-10-11T00:03:40.756Z,999.71
2022-10-11T00:04:40.736Z,999.72
2022-10-11T00:05:40.720Z,999.78
2022-10-11T00:06:40.721Z,999.72
2022-10-11T00:07:40.721Z,999.77
2022-10-11T00:08:40.710Z,999.73
2022-10-11T00:09:40.697Z,999.78
2022-10-11T00:10:40.696Z,999.83
2022-10-11T00:11:40.684Z,999.78
2022-10-11T00:12:40.676Z,999.81
2022-10-11T00:13:40.692Z,999.90
2022-10-11T00:14:40.664Z,999.91
2022-10-11T00:15:40.657Z,999.89
2022-10-11T00:16:40.656Z,999.97
2022-10-11T00:17:40.647Z,999.89
2022-10-11T00:18:40.655Z,999.89
2022-10-11T00:19:40.631Z,999.92
2022-10-11T00:20:40.631Z,999.92
2022-10-11T00:21:40.615Z,999.93
2022-10-11T00:22:40.619Z,999.89
2022-10-11T00:23:40.610Z,999.94
2022-10-11T00:24:40.608Z,999.92
2022-10-11T00:25:40.595Z,999.98
2022-10-11T00:26:45.698Z,999.89
2022-10-11T00:27:42.584Z,999.90
2022-10-11T00:28:40.632Z,999.88
2022-10-11T00:29:40.573Z,999.93
2022-10-11T00:30:40.564Z,999.92
2022-10-11T00:31:40.551Z,999.94
2022-10-11T00:32:40.549Z,999.97
2022-10-11T00:33:40.542Z,999.99
2022-10-11T00:34:40.544Z,999.95
2022-10-11T00:35:40.534Z,999.96
2022-10-11T00:36:40.511Z,999.95
2022-10-11T00:37:40.527Z,999.98
2022-10-11T00:38:40.510Z,999.96
2022-10-11T00:39:40.497Z,999.98
2022-10-11T00:40:40.524Z,1000.03
2022-10-11T00:41:40.488Z,999.94
2022-10-11T00:42:40.480Z,999.95
2022-10-11T00:43:40.465Z,1000.04
2022-10-11T00:44:40.472Z,1000.04
2022-10-11T00:45:40.478Z,1000.05
2022-10-11T00:46:40.466Z,1000.09
2022-10-11T00:47:40.445Z,1000.11
2022-10-11T00:48:40.437Z,1000.13
2022-10-11T00:49:40.428Z,1000.11
2022-10-11T00:50:40.441Z,1000.10
2022-10-11T00:51:40.428Z,1000.11
2022-10-11T00:52:40.405Z,1000.15
2022-10-11T00:53:40.405Z,1000.18
2022-10-11T00:54:40.396Z,1000.20
2022-10-11T00:55:40.400Z,1000.19
2022-10-11T00:56:40.385Z,1000.22
2022-10-11T00:57:40.381Z,1000.14
2022-10-11T00:58:40.376Z,1000.19
2022-10-11T00:59:40.357Z,1000.19
2022-10-11T01:00:40.371Z,1000.17
2022-10-11T01:01:40.401Z,1000.16
2022-10-11T01:02:40.332Z,1000.22
2022-10-11T01:03:40.334Z,1000.28
2022-10-11T01:04:40.335Z,1000.19
2022-10-11T01:05:40.364Z,1000.18
2022-10-11T01:06:40.315Z,1000.19
2022-10-11T01:07:40.309Z,1000.20
2022-10-11T01:08:40.300Z,1000.22
2022-10-11T01:09:40.294Z,1000.27
2022-10-11T01:10:40.288Z,1000.19
2022-10-11T01:11:40.316Z,1000.27
2022-10-11T01:12:40.277Z,1000.32
2022-10-11T01:13:40.264Z,1000.36
2022-10-11T01:14:40.262Z,1000.30
2022-10-11T01:15:40.249Z,1000.38
2022-10-11T01:16:40.255Z,1000.40
2022-10-11T01:17:40.244Z,1000.36
2022-10-11T01:18:40.229Z,1000.41
2022-10-11T01:19:40.229Z,1000.37
2022-10-11T01:20:40.221Z,1000.34
2022-10-11T01:21:40.245Z,1000.39
2022-10-11T01:22:40.209Z,1000.39
2022-10-11T01:23:40.197Z,1000.33
2022-10-11T01:24:40.200Z,1000.33
2022-10-11T01:25:40.180Z,1000.34
2022-10-11T01:26:40.172Z,1000.28
2022-10-11T01:27:40.194Z,1000.32
2022-10-11T01:28:40.403Z,1000.31
2022-10-11T01:29:40.176Z,1000.34
2022-10-11T01:30:40.155Z,1000.32
2022-10-11T01:31:40.144Z,1000.32
2022-10-11T01:32:40.208Z,1000.35
2022-10-11T01:33:40.136Z,1000.40
2022-10-11T01:34:40.128Z,1000.40
2022-10-11T01:35:40.134Z,1000.33
2022-10-11T01:36:40.121Z,1000.34
2022-10-11T01:37:40.105Z,1000.37
2022-10-11T01:38:40.104Z,1000.38
2022-10-11T01:39:40.088Z,1000.30
2022-10-11T01:40:40.082Z,1000.28
2022-10-11T01:41:40.132Z,1000.33
2022-10-11T01:42:40.060Z,1000.39
2022-10-11T01:43:40.112Z,1000.35
2022-10-11T01:44:40.069Z,1000.32
2022-10-11T01:45:40.056Z,1000.32
2022-10-11T01:46:40.706Z,1000.38
2022-10-11T01:47:40.027Z,1000.36
2022-10-11T01:48:40.049Z,1000.45
2022-10-11T01:49:40.018Z,1000.41
2022-10-11T01:50:40.008Z,1000.42
2022-10-11T01:51:42.027Z,1000.47
2022-10-11T01:52:40.997Z,1000.45
2022-10-11T01:53:39.991Z,1000.51
2022-10-11T01:55:07.416Z,1000.54
2022-10-11T01:55:41.972Z,1000.48
2022-10-11T01:56:39.980Z,1000.57
2022-10-11T01:57:39.960Z,1000.58
2022-10-11T01:58:39.944Z,1000.57
2022-10-11T01:59:39.954Z,1000.49
2022-10-11T02:00:39.937Z,1000.51
2022-10-11T02:01:40.007Z,1000.47
2022-10-11T02:02:39.933Z,1000.50
2022-10-11T02:03:39.925Z,1000.48
2022-10-11T02:04:39.944Z,1000.46
2022-10-11T02:05:39.896Z,1000.52
2022-10-11T02:06:39.907Z,1000.52
2022-10-11T02:07:39.895Z,1000.56
2022-10-11T02:08:39.883Z,1000.53
2022-10-11T02:09:39.884Z,1000.56
2022-10-11T02:10:40.019Z,1000.55
2022-10-11T02:11:39.870Z,1000.59
2022-10-11T02:12:39.878Z,1000.58
2022-10-11T02:13:39.880Z,1000.62
2022-10-11T02:14:39.920Z,1000.61
2022-10-11T02:15:39.878Z,1000.60
2022-10-11T02:16:39.852Z,1000.65
2022-10-11T02:17:40.862Z,1000.56
2022-10-11T02:18:39.852Z,1000.55
2022-10-11T02:19:39.824Z,1000.56
2022-10-11T02:20:39.803Z,1000.60
2022-10-11T02:21:39.791Z,1000.62
2022-10-11T02:22:39.820Z,1000.60
2022-10-11T02:23:39.803Z,1000.56
2022-10-11T02:24:40.776Z,1000.61
2022-10-11T02:25:39.768Z,1000.58
2022-10-11T02:26:39.767Z,1000.65
2022-10-11T02:27:39.759Z,1000.64
2022-10-11T02:28:39.997Z,1000.57
2022-10-11T02:29:39.741Z,1000.57
2022-10-11T02:30:39.733Z,1000.60
2022-10-11T02:31:40.581Z,1000.66
2022-10-11T02:32:39.737Z,1000.71
2022-10-11T02:33:39.712Z,1000.66
2022-10-11T02:34:39.709Z,1000.70
2022-10-11T02:35:39.700Z,1000.76
2022-10-11T02:36:39.693Z,1000.71
2022-10-11T02:37:39.701Z,1000.72
2022-10-11T02:38:39.683Z,1000.68
2022-10-11T02:39:39.676Z,1000.66
2022-10-11T02:40:39.678Z,1000.76
2022-10-11T02:41:39.671Z,1000.72
2022-10-11T02:42:39.656Z,1000.74
2022-10-11T02:43:39.664Z,1000.84
2022-10-11T02:44:39.681Z,1000.81
2022-10-11T02:45:39.644Z,1000.77
2022-10-11T02:46:39.638Z,1000.80
2022-10-11T02:47:39.629Z,1000.78
2022-10-11T02:48:39.621Z,1000.78
2022-10-11T02:49:39.629Z,1000.80
2022-10-11T02:50:39.605Z,1000.78
2022-10-11T02:51:39.601Z,1000.78
2022-10-11T02:52:39.594Z,1000.75
2022-10-11T02:53:39.583Z,1000.80
2022-10-11T02:54:39.576Z,1000.79
2022-10-11T02:55:39.580Z,1000.84
2022-10-11T02:56:39.597Z,1000.90
2022-10-11T02:57:39.556Z,1000.86
2022-10-11T02:58:39.560Z,1000.87
2022-10-11T02:59:39.539Z,1000.93
2022-10-11T03:00:39.553Z,1000.91
2022-10-11T03:01:39.660Z,1000.87
2022-10-11T03:02:39.532Z,1000.93
2022-10-11T03:03:39.516Z,1000.92
2022-10-11T03:04:39.508Z,1000.93
2022-10-11T03:05:39.505Z,1000.96
2022-10-11T03:06:39.514Z,1000.96
2022-10-11T03:07:39.498Z,1000.97
2022-10-11T03:08:39.491Z,1001.06
2022-10-11T03:09:39.480Z,1000.98
2022-10-11T03:10:39.476Z,1001.00
2022-10-11T03:11:40.186Z,1001.08
2022-10-11T03:12:39.474Z,1001.12
2022-10-11T03:13:39.450Z,1001.17
2022-10-11T03:14:39.451Z,1001.18
2022-10-11T03:15:39.447Z,1001.20
2022-10-11T03:16:39.435Z,1001.20
2022-10-11T03:17:39.447Z,1001.15
2022-10-11T03:18:39.418Z,1001.21
2022-10-11T03:19:39.410Z,1001.18
2022-10-11T03:20:39.402Z,1001.24
2022-10-11T03:21:39.407Z,1001.19
2022-10-11T03:22:39.397Z,1001.33
2022-10-11T03:23:39.398Z,1001.26
2022-10-11T03:24:39.398Z,1001.27
2022-10-11T03:25:39.372Z,1001.27
2022-10-11T03:26:39.370Z,1001.26
2022-10-11T03:27:39.377Z,1001.27
2022-10-11T03:28:39.392Z,1001.32
2022-10-11T03:29:39.385Z,1001.28
2022-10-11T03:30:39.350Z,1001.27
2022-10-11T03:31:39.343Z,1001.28
2022-10-11T03:32:39.331Z,1001.29
2022-10-11T03:33:39.328Z,1001.29
2022-10-11T03:34:39.318Z,1001.30
2022-10-11T03:35:39.334Z,1001.34
2022-10-11T03:36:39.317Z,1001.31
2022-10-11T03:37:39.297Z,1001.28
2022-10-11T03:38:39.298Z,1001.33
2022-10-11T03:39:39.285Z,1001.25
2022-10-11T03:40:39.328Z,1001.29
2022-10-11T03:41:39.281Z,1001.33
2022-10-11T03:42:39.266Z,1001.24
2022-10-11T03:43:39.274Z,1001.34
2022-10-11T03:44:39.251Z,1001.38
2022-10-11T03:45:39.251Z,1001.36
2022-10-11T03:46:39.242Z,1001.35
2022-10-11T03:47:39.238Z,1001.34
2022-10-11T03:48:39.243Z,1001.31
2022-10-11T03:49:43.398Z,1001.38
2022-10-11T03:50:39.210Z,1001.40
2022-10-11T03:51:39.250Z,1001.39
2022-10-11T03:52:39.207Z,1001.37
2022-10-11T03:53:39.194Z,1001.36
2022-10-11T03:54:39.194Z,1001.38
2022-10-11T03:55:39.176Z,1001.42
2022-10-11T03:56:39.181Z,1001.44
2022-10-11T03:57:39.170Z,1001.41
2022-10-11T03:58:39.166Z,1001.45
2022-10-11T03:59:39.182Z,1001.50
2022-10-11T04:00:39.157Z,1001.52
2022-10-11T04:01:39.168Z,1001.53
2022-10-11T04:02:39.456Z,1001.58
2022-10-11T04:03:40.126Z,1001.58
2022-10-11T04:04:39.128Z,1001.57
2022-10-11T04:05:39.142Z,1001.59
2022-10-11T04:06:39.113Z,1001.61
2022-10-11T04:07:39.111Z,1001.61
2022-10-11T04:08:39.104Z,1001.60
2022-10-11T04:09:39.087Z,1001.61
2022-10-11T04:10:39.112Z,1001.63
2022-10-11T04:11:39.089Z,1001.66
2022-10-11T04:12:39.110Z,1001.65
2022-10-11T04:13:39.078Z,1001.67
2022-10-11T04:14:39.089Z,1001.67
2022-10-11T04:15:39.067Z,1001.64
2022-10-11T04:16:39.070Z,1001.69
2022-10-11T04:17:39.040Z,1001.66
2022-10-11T04:18:39.031Z,1001.63
2022-10-11T04:19:39.043Z,1001.74
2022-10-11T04:20:39.024Z,1001.68
2022-10-11T04:21:39.020Z,1001.78
2022-10-11T04:22:39.005Z,1001.78
2022-10-11T04:23:39.016Z,1001.76
2022-10-11T04:24:38.996Z,1001.78
2022-10-11T04:25:38.983Z,1001.75
2022-10-11T04:26:38.985Z,1001.76
2022-10-11T04:27:38.981Z,1001.83
2022-10-11T04:28:39.014Z,1001.77
2022-10-11T04:29:38.960Z,1001.77
2022-10-11T04:30:38.955Z,1001.77
2022-10-11T04:31:39.019Z,1001.78
2022-10-11T04:32:39.945Z,1001.83
2022-10-11T04:33:38.941Z,1001.85
2022-10-11T04:34:38.937Z,1001.85
2022-10-11T04:35:38.944Z,1001.85
2022-10-11T04:36:38.924Z,1001.88
2022-10-11T04:37:38.920Z,1001.79
2022-10-11T04:38:38.925Z,1001.81
2022-10-11T04:39:38.908Z,1001.84
2022-10-11T04:40:38.904Z,1001.89
2022-10-11T04:41:38.887Z,1001.83
2022-10-11T04:42:38.884Z,1001.88
2022-10-11T04:43:38.880Z,1001.87
2022-10-11T04:44:38.868Z,1001.90
2022-10-11T04:45:38.897Z,1001.87
2022-10-11T04:46:38.856Z,1001.91
2022-10-11T04:47:38.852Z,1001.90
2022-10-11T04:48:38.850Z,1001.95
2022-10-11T04:49:38.840Z,1001.94
2022-10-11T04:50:38.832Z,1001.95
2022-10-11T04:51:38.840Z,1001.94
2022-10-11T04:52:38.807Z,1001.96
2022-10-11T04:53:38.808Z,1001.98
2022-10-11T04:54:38.799Z,1001.96
2022-10-11T04:55:38.799Z,1002.00
2022-10-11T04:56:38.807Z,1001.96
2022-10-11T04:57:38.783Z,1002.00
2022-10-11T04:58:38.788Z,1001.94
2022-10-11T04:59:38.777Z,1001.94
2022-10-11T05:00:38.762Z,1001.99
2022-10-11T05:01:38.785Z,1002.03
2022-10-11T05:02:38.764Z,1001.99
2022-10-11T05:03:38.739Z,1001.99
2022-10-11T05:04:38.732Z,1002.03
2022-10-11T05:05:38.730Z,1002.02
2022-10-11T05:06:38.712Z,1002.12
2022-10-11T05:07:38.728Z,1002.13
2022-10-11T05:08:38.708Z,1002.12
2022-10-11T05:09:38.692Z,1002.13
2022-10-11T05:10:38.687Z,1002.21
2022-10-11T05:11:38.687Z,1002.12
2022-10-11T05:12:38.692Z,1002.15
2022-10-11T05:13:38.676Z,1002.13
2022-10-11T05:14:38.668Z,1002.19
2022-10-11T05:15:38.655Z,1002.17
2022-10-11T05:16:38.653Z,1002.15
2022-10-11T05:17:38.659Z,1002.19
2022-10-11T05:18:38.632Z,1002.10
2022-10-11T05:19:38.644Z,1002.22
2022-10-11T05:20:38.629Z,1002.16
2022-10-11T05:21:38.611Z,1002.19
2022-10-11T05:22:38.613Z,1002.21
2022-10-11T05:23:38.609Z,1002.28
2022-10-11T05:24:38.597Z,1002.24
2022-10-11T05:25:38.590Z,1002.26
2022-10-11T05:26:38.588Z,1002.29
2022-10-11T05:27:38.579Z,1002.26
2022-10-11T05:28:38.610Z,1002.25
2022-10-11T05:29:38.572Z,1002.25
2022-10-11T05:30:38.628Z,1002.27
2022-10-11T05:31:38.556Z,1002.30
2022-10-11T05:32:38.550Z,1002.27
2022-10-11T05:33:38.539Z,1002.32
2022-10-11T05:34:38.528Z,1002.39
2022-10-11T05:35:38.537Z,1002.37
2022-10-11T05:36:38.521Z,1002.37
2022-10-11T05:37:38.527Z,1002.29
2022-10-11T05:38:38.503Z,1002.33
2022-10-11T05:39:38.499Z,1002.32
2022-10-11T05:40:38.496Z,1002.29
2022-10-11T05:41:38.494Z,1002.37
2022-10-11T05:42:38.483Z,1002.41
2022-10-11T05:43:38.475Z,1002.36
2022-10-11T05:44:38.468Z,1002.43
2022-10-11T05:45:38.454Z,1002.47
2022-10-11T05:46:38.472Z,1002.43
2022-10-11T05:47:38.448Z,1002.46
2022-10-11T05:48:38.444Z,1002.48
2022-10-11T05:49:38.436Z,1002.52
2022-10-11T05:50:38.428Z,1002.49
2022-10-11T05:51:38.440Z,1002.53
2022-10-11T05:52:38.412Z,1002.55
2022-10-11T05:53:38.402Z,1002.56
2022-10-11T05:54:38.403Z,1002.58
2022-10-11T05:55:38.396Z,1002.61
2022-10-11T05:56:38.391Z,1002.63
2022-10-11T05:57:38.384Z,1002.64
2022-10-11T05:58:38.406Z,1002.66
2022-10-11T05:59:38.367Z,1002.62
2022-10-11T06:00:38.369Z,1002.63
2022-10-11T06:01:38.477Z,1002.67
2022-10-11T06:02:38.355Z,1002.64
2022-10-11T06:03:38.352Z,1002.67
2022-10-11T06:04:38.326Z,1002.67
2022-10-11T06:05:38.334Z,1002.75
2022-10-11T06:06:38.323Z,1002.76
2022-10-11T06:07:38.324Z,1002.76
2022-10-11T06:08:38.316Z,1002.81
2022-10-11T06:09:38.319Z,1002.77
2022-10-11T06:10:38.302Z,1002.75
2022-10-11T06:11:38.295Z,1002.81
2022-10-11T06:12:38.276Z,1002.84
2022-10-11T06:13:38.282Z,1002.85
2022-10-11T06:14:38.287Z,1002.81
2022-10-11T06:15:38.267Z,1002.85
2022-10-11T06:16:38.260Z,1002.79
2022-10-11T06:17:38.255Z,1002.83
2022-10-11T06:18:38.240Z,1002.85
2022-10-11T06:19:38.235Z,1002.85
2022-10-11T06:20:38.252Z,1002.88
2022-10-11T06:21:38.221Z,1002.84
2022-10-11T06:22:38.211Z,1002.85
2022-10-11T06:23:38.212Z,1002.89
2022-10-11T06:24:38.194Z,1002.90
2022-10-11T06:25:38.211Z,1002.86
2022-10-11T06:26:38.191Z,1002.88
2022-10-11T06:27:38.178Z,1002.97
2022-10-11T06:28:38.268Z,1002.94
2022-10-11T06:29:38.188Z,1002.86
2022-10-11T06:30:38.160Z,1002.90
2022-10-11T06:31:38.171Z,1002.96
2022-10-11T06:32:38.155Z,1002.92
2022-10-11T06:33:38.154Z,1002.97
2022-10-11T06:34:38.139Z,1002.95
2022-10-11T06:35:38.136Z,1002.98
2022-10-11T06:36:38.148Z,1003.03
2022-10-11T06:37:38.132Z,1002.99
2022-10-11T06:38:43.819Z,1003.03
2022-10-11T06:39:40.191Z,1002.99
2022-10-11T06:40:38.107Z,1002.99
2022-10-11T06:41:38.096Z,1003.02
2022-10-11T06:42:38.125Z,1002.99
2022-10-11T06:43:38.080Z,1003.04
2022-10-11T06:44:38.103Z,1003.09
2022-10-11T06:45:38.069Z,1003.09
2022-10-11T06:46:38.067Z,1003.07
2022-10-11T06:47:38.131Z,1003.11
2022-10-11T06:48:38.072Z,1003.13
2022-10-11T06:49:38.038Z,1003.16
2022-10-11T06:50:58.435Z,1003.17
2022-10-11T06:51:40.030Z,1003.12
2022-10-11T06:52:38.033Z,1003.16
2022-10-11T06:53:38.033Z,1003.15
2022-10-11T06:54:42.506Z,1003.17
2022-10-11T06:55:40.000Z,1003.17
2022-10-11T06:56:37.998Z,1003.10
2022-10-11T06:57:37.984Z,1003.26
2022-10-11T06:58:37.986Z,1003.25
2022-10-11T06:59:37.974Z,1003.28
2022-10-11T07:00:38.198Z,1003.25
2022-10-11T07:01:38.059Z,1003.20
2022-10-11T07:02:37.952Z,1003.28
2022-10-11T07:03:37.963Z,1003.29
2022-10-11T07:04:37.958Z,1003.29
2022-10-11T07:05:37.950Z,1003.28
2022-10-11T07:06:37.962Z,1003.40
2022-10-11T07:07:37.921Z,1003.33
2022-10-11T07:08:37.923Z,1003.29
2022-10-11T07:09:37.906Z,1003.34
2022-10-11T07:10:37.918Z,1003.31
2022-10-11T07:11:37.900Z,1003.33
2022-10-11T07:12:37.911Z,1003.33
2022-10-11T07:13:37.902Z,1003.35
2022-10-11T07:14:37.899Z,1003.37
2022-10-11T07:15:37.888Z,1003.40
2022-10-11T07:16:37.937Z,1003.36
2022-10-11T07:17:37.874Z,1003.45
2022-10-11T07:18:37.850Z,1003.44
2022-10-11T07:19:37.861Z,1003.47
2022-10-11T07:20:37.880Z,1003.42
2022-10-11T07:21:37.862Z,1003.46
2022-10-11T07:22:37.850Z,1003.48
2022-10-11T07:23:37.855Z,1003.51
2022-10-11T07:24:37.842Z,1003.48
2022-10-11T07:25:37.867Z,1003.48
2022-10-11T07:26:38.302Z,1003.50
2022-10-11T07:27:38.791Z,1003.50
2022-10-11T07:28:37.834Z,1003.42
2022-10-11T07:29:37.819Z,1003.53
2022-10-11T07:30:37.771Z,1003.45
2022-10-11T07:31:37.758Z,1003.47
2022-10-11T07:32:37.761Z,1003.51
2022-10-11T07:33:37.739Z,1003.44
2022-10-11T07:34:37.743Z,1003.46
2022-10-11T07:35:37.736Z,1003.53
2022-10-11T07:36:37.739Z,1003.57
2022-10-11T07:37:37.715Z,1003.51
2022-10-11T07:38:37.727Z,1003.54
2022-10-11T07:39:37.701Z,1003.57
2022-10-11T07:40:37.695Z,1003.50
2022-10-11T07:41:41.811Z,1003.40
2022-10-11T07:42:37.702Z,1003.49
2022-10-11T07:43:37.678Z,1003.37
2022-10-11T07:44:37.662Z,1003.41
2022-10-11T07:45:37.651Z,1003.37
2022-10-11T07:46:37.656Z,1003.38
2022-10-11T07:47:37.659Z,1003.40
2022-10-11T07:48:37.666Z,1003.45
2022-10-11T07:49:37.642Z,1003.48
2022-10-11T07:50:37.630Z,1003.49
2022-10-11T07:51:37.622Z,1003.39
2022-10-11T07:52:37.619Z,1003.48
2022-10-11T07:53:37.606Z,1003.45
2022-10-11T07:54:37.611Z,1003.53
2022-10-11T07:55:37.587Z,1003.41
2022-10-11T07:56:37.585Z,1003.41
2022-10-11T07:57:37.578Z,1003.44
2022-10-11T07:58:37.575Z,1003.48
2022-10-11T07:59:37.563Z,1003.45
2022-10-11T08:00:37.596Z,1003.49
2022-10-11T08:01:37.604Z,1003.50
2022-10-11T08:02:38.537Z,1003.50
2022-10-11T08:03:37.540Z,1003.51
2022-10-11T08:04:37.576Z,1003.51
2022-10-11T08:05:37.532Z,1003.63
2022-10-11T08:06:37.551Z,1003.54
2022-10-11T08:07:37.522Z,1003.60
2022-10-11T08:08:37.517Z,1003.66
2022-10-11T08:09:37.503Z,1003.53
2022-10-11T08:10:37.504Z,1003.51
2022-10-11T08:11:37.479Z,1003.58
2022-10-11T08:12:37.504Z,1003.57
2022-10-11T08:13:37.487Z,1003.53
2022-10-11T08:14:37.461Z,1003.57
2022-10-11T08:15:37.460Z,1003.68
2022-10-11T08:16:37.456Z,1003.74
2022-10-11T08:17:37.480Z,1003.66
2022-10-11T08:18:37.457Z,1003.68
2022-10-11T08:19:37.432Z,1003.70
2022-10-11T08:20:37.427Z,1003.62
2022-10-11T08:21:37.425Z,1003.58
2022-10-11T08:22:37.426Z,1003.49
2022-10-11T08:23:37.414Z,1003.49
2022-10-11T08:24:38.428Z,1003.61
2022-10-11T08:25:38.389Z,1003.53
2022-10-11T08:26:37.383Z,1003.51
2022-10-11T08:27:37.386Z,1003.47
2022-10-11T08:28:37.409Z,1003.51
2022-10-11T08:29:37.365Z,1003.43
2022-10-11T08:30:37.367Z,1003.44
2022-10-11T08:31:37.370Z,1003.41
2022-10-11T08:32:37.356Z,1003.38
2022-10-11T08:33:37.337Z,1003.38
2022-10-11T08:34:37.337Z,1003.41
2022-10-11T08:35:37.318Z,1003.46
2022-10-11T08:36:37.322Z,1003.45
2022-10-11T08:37:37.318Z,1003.44
2022-10-11T08:38:37.294Z,1003.39
2022-10-11T08:39:37.294Z,1003.46
2022-10-11T08:40:37.299Z,1003.46
2022-10-11T08:41:37.333Z,1003.46
2022-10-11T08:42:37.275Z,1003.40
2022-10-11T08:43:37.267Z,1003.43
2022-10-11T08:45:05.392Z,1003.46
2022-10-11T08:45:39.264Z,1003.44
2022-10-11T08:46:37.242Z,1003.41
2022-10-11T08:47:37.268Z,1003.39
2022-10-11T08:48:37.245Z,1003.45
2022-10-11T08:49:37.252Z,1003.49
2022-10-11T08:50:37.237Z,1003.46
2022-10-11T08:51:37.224Z,1003.49
2022-10-11T08:52:37.258Z,1003.47
2022-10-11T08:53:37.217Z,1003.46
2022-10-11T08:54:37.225Z,1003.52
2022-10-11T08:55:37.184Z,1003.50
2022-10-11T08:56:37.185Z,1003.53
2022-10-11T08:57:37.180Z,1003.48
2022-10-11T08:58:37.184Z,1003.52
2022-10-11T08:59:37.185Z,1003.49
2022-10-11T09:00:37.173Z,1003.45
2022-10-11T09:01:37.379Z,1003.46
2022-10-11T09:03:03.090Z,1003.46
2022-10-11T09:03:39.198Z,1003.46
2022-10-11T09:04:37.152Z,1003.48
2022-10-11T09:05:37.133Z,1003.48
2022-10-11T09:06:37.127Z,1003.52
2022-10-11T09:07:37.198Z,1003.48
2022-10-11T09:08:37.101Z,1003.53
2022-10-11T09:09:38.104Z,1003.49
2022-10-11T09:10:37.104Z,1003.49
2022-10-11T09:11:37.082Z,1003.50
2022-10-11T09:12:40.675Z,1003.46
2022-10-11T09:13:38.060Z,1003.59
2022-10-11T09:14:37.062Z,1003.60
2022-10-11T09:15:37.053Z,1003.58
2022-10-11T09:16:37.059Z,1003.57
2022-10-11T09:17:37.068Z,1003.59
2022-10-11T09:18:37.043Z,1003.62
2022-10-11T09:19:37.036Z,1003.56
2022-10-11T09:20:37.024Z,1003.56
2022-10-11T09:21:37.019Z,1003.52
2022-10-11T09:22:37.041Z,1003.55
2022-10-11T09:23:37.035Z,1003.58
2022-10-11T09:24:37.007Z,1003.63
2022-10-11T09:25:36.988Z,1003.69
2022-10-11T09:26:37.048Z,1003.55
2022-10-11T09:28:01.116Z,1003.57
2022-10-11T09:28:39.031Z,1003.63
2022-10-11T09:29:36.964Z,1003.64
2022-10-11T09:30:36.958Z,1003.55
2022-10-11T09:31:36.965Z,1003.55
2022-10-11T09:32:36.941Z,1003.54
2022-10-11T09:33:36.960Z,1003.54
2022-10-11T09:34:36.949Z,1003.55
2022-10-11T09:35:36.964Z,1003.51
2022-10-11T09:36:36.922Z,1003.58
2022-10-11T09:37:36.925Z,1003.57
2022-10-11T09:38:36.921Z,1003.59
2022-10-11T09:39:36.907Z,1003.54
2022-10-11T09:40:36.900Z,1003.59
2022-10-11T09:41:36.884Z,1003.56
2022-10-11T09:42:36.884Z,1003.64
2022-10-11T09:43:36.888Z,1003.63
2022-10-11T09:44:36.873Z,1003.59
2022-10-11T09:45:36.864Z,1003.62
2022-10-11T09:46:36.855Z,1003.61
2022-10-11T09:47:36.852Z,1003.75
2022-10-11T09:48:36.840Z,1003.76
2022-10-11T09:49:36.843Z,1003.65
2022-10-11T09:50:36.832Z,1003.58
2022-10-11T09:51:36.813Z,1003.60
2022-10-11T09:52:36.812Z,1003.62
2022-10-11T09:53:36.820Z,1003.58
2022-10-11T09:54:36.820Z,1003.57
2022-10-11T09:55:36.798Z,1003.57
2022-10-11T09:56:36.804Z,1003.61
2022-10-11T09:57:36.792Z,1003.56
2022-10-11T09:58:36.812Z,1003.57
2022-10-11T09:59:36.791Z,1003.70
2022-10-11T10:00:36.768Z,1003.55
2022-10-11T10:01:36.797Z,1003.51
2022-10-11T10:02:37.760Z,1003.56
2022-10-11T10:03:36.771Z,1003.74
2022-10-11T10:04:52.265Z,1003.80
2022-10-11T10:05:37.751Z,1003.82
2022-10-11T10:06:36.720Z,1003.79
2022-10-11T10:07:36.741Z,1003.73
2022-10-11T10:08:36.721Z,1003.83
2022-10-11T10:09:36.708Z,1003.80
2022-10-11T10:10:36.710Z,1003.75
2022-10-11T10:11:36.698Z,1003.70
2022-10-11T10:12:36.686Z,1003.74
2022-10-11T10:13:36.681Z,1003.80
2022-10-11T10:14:36.672Z,1003.77
2022-10-11T10:15:36.684Z,1003.72
2022-10-11T10:16:36.653Z,1003.76
2022-10-11T10:17:36.650Z,1003.73
2022-10-11T10:18:36.646Z,1003.78
2022-10-11T10:19:38.924Z,1003.77
2022-10-11T10:20:37.651Z,1003.71
2022-10-11T10:21:36.627Z,1003.70
2022-10-11T10:22:36.619Z,1003.71
2022-10-11T10:23:36.619Z,1003.75
2022-10-11T10:24:36.604Z,1003.72
2022-10-11T10:25:40.845Z,1003.78
2022-10-11T10:26:37.600Z,1003.71
2022-10-11T10:27:36.589Z,1003.69
2022-10-11T10:28:36.654Z,1003.69
2022-10-11T10:29:36.603Z,1003.68
2022-10-11T10:30:36.644Z,1003.48
2022-10-11T10:31:54.961Z,1003.51
2022-10-11T10:32:38.561Z,1003.73
2022-10-11T10:33:36.551Z,1003.73
2022-10-11T10:34:36.552Z,1003.71
2022-10-11T10:35:36.567Z,1003.62
2022-10-11T10:36:36.537Z,1003.27
2022-10-11T10:37:36.538Z,1003.38
2022-10-11T10:38:36.527Z,1003.44
2022-10-11T10:39:36.531Z,1003.54
2022-10-11T10:40:36.555Z,1003.54
2022-10-11T10:41:36.519Z,1003.61
2022-10-11T10:42:36.520Z,1003.61
2022-10-11T10:43:36.519Z,1003.22
2022-10-11T10:44:36.495Z,1003.16
2022-10-11T10:45:36.500Z,1003.19
2022-10-11T10:46:36.487Z,1003.40
2022-10-11T10:47:36.463Z,1003.42
2022-10-11T10:49:11.719Z,1003.50
2022-10-11T10:49:54.979Z,1003.18
2022-10-11T10:50:38.451Z,1003.21
2022-10-11T10:51:36.486Z,1003.19
2022-10-11T10:52:36.444Z,1003.35
2022-10-11T10:53:36.437Z,1003.55
2022-10-11T10:54:36.436Z,1003.51
2022-10-11T10:55:36.564Z,1003.29
2022-10-11T10:56:36.485Z,1003.28
2022-10-11T10:57:36.417Z,1003.49
2022-10-11T10:58:36.491Z,1003.48
2022-10-11T10:59:36.403Z,1003.34
2022-10-11T11:00:36.409Z,1003.25
2022-10-11T11:01:36.451Z,1003.13
2022-10-11T11:02:40.869Z,1003.23
2022-10-11T11:03:38.397Z,1003.16
2022-10-11T11:04:36.379Z,1003.08
2022-10-11T11:05:36.404Z,1003.12
2022-10-11T11:06:36.748Z,1003.32
2022-10-11T11:07:36.415Z,1003.33
2022-10-11T11:08:36.359Z,1003.31
2022-10-11T11:09:36.367Z,1003.39
2022-10-11T11:10:36.376Z,1003.38
2022-10-11T11:11:36.381Z,1003.38
2022-10-11T11:12:36.359Z,1003.29
2022-10-11T11:13:36.328Z,1003.34
2022-10-11T11:14:36.328Z,1003.36
2022-10-11T11:15:38.158Z,1003.33
2022-10-11T11:16:37.345Z,1003.28
2022-10-11T11:17:36.308Z,1003.30
2022-10-11T11:18:36.308Z,1003.27
2022-10-11T11:19:36.324Z,1003.36
2022-10-11T11:20:36.291Z,1003.16
2022-10-11T11:21:41.248Z,1003.12
2022-10-11T11:22:38.281Z,1003.00
2022-10-11T11:23:36.311Z,1002.95
2022-10-11T11:24:36.259Z,1003.16
2022-10-11T11:25:36.283Z,1003.03
2022-10-11T11:26:37.810Z,1003.07
2022-10-11T11:27:36.248Z,1003.07
2022-10-11T11:28:36.296Z,1003.07
2022-10-11T11:29:36.307Z,1003.27
2022-10-11T11:30:36.241Z,1003.29
2022-10-11T11:31:36.248Z,1003.26
2022-10-11T11:32:36.232Z,1003.28
2022-10-11T11:33:36.230Z,1003.29
2022-10-11T11:34:36.205Z,1003.23
2022-10-11T11:35:36.202Z,1003.32
2022-10-11T11:36:36.208Z,1003.20
2022-10-11T11:37:36.193Z,1003.21
2022-10-11T11:38:36.204Z,1003.22
2022-10-11T11:39:36.248Z,1003.27
2022-10-11T11:40:36.220Z,1003.23
2022-10-11T11:41:36.220Z,1003.24
2022-10-11T11:42:36.172Z,1003.30
2022-10-11T11:43:36.194Z,1003.29
2022-10-11T11:44:36.165Z,1003.29
2022-10-11T11:45:36.178Z,1003.15
2022-10-11T11:46:36.244Z,1003.15
2022-10-11T11:47:36.128Z,1003.06
2022-10-11T11:48:36.127Z,1003.12
2022-10-11T11:49:36.187Z,1003.06
2022-10-11T11:50:37.149Z,1002.98
2022-10-11T11:51:36.781Z,1003.03
2022-10-11T11:52:36.152Z,1002.93
2022-10-11T11:53:36.116Z,1003.00
2022-10-11T11:54:36.244Z,1002.97
2022-10-11T11:55:36.126Z,1002.91
2022-10-11T11:56:36.100Z,1002.83
2022-10-11T11:57:36.137Z,1002.80
2022-10-11T11:58:36.097Z,1002.79
2022-10-11T11:59:36.104Z,1002.82
2022-10-11T12:00:36.097Z,1002.72
2022-10-11T12:01:36.129Z,1002.66
2022-10-11T12:02:36.047Z,1002.61
2022-10-11T12:03:41.279Z,1002.61
2022-10-11T12:04:38.052Z,1002.54
2022-10-11T12:05:36.096Z,1002.46
2022-10-11T12:06:40.317Z,1002.48
2022-10-11T12:07:38.026Z,1002.49